createdAt,value
2019-02-05T00:01:26.974Z,95691.70
2019-02-05T00:03:57.198Z,95696.89
2019-02-05T00:06:26.894Z,95698.61
2019-02-05T00:08:56.674Z,95693.33
2019-02-05T00:11:26.256Z,95697.52
2019-02-05T00:13:56.197Z,95694.45
2019-02-05T00:16:25.760Z,95698.69
2019-02-05T00:18:55.491Z,95693.31
2019-02-05T00:21:25.175Z,95690.88
2019-02-05T00:23:54.956Z,95691.55
2019-02-05T00:26:24.827Z,95691.29
2019-02-05T00:28:54.501Z,95694.58
2019-02-05T00:31:24.189Z,95695.00
2019-02-05T00:33:54.298Z,95696.66
2019-02-05T00:36:24.140Z,95693.13
2019-02-05T00:38:54.117Z,95689.91
2019-02-05T00:41:23.961Z,95692.81
2019-02-05T00:43:53.687Z,95692.56
2019-02-05T00:46:23.313Z,95691.45
2019-02-05T00:48:53.235Z,95687.39
2019-02-05T00:51:23.018Z,95691.25
2019-02-05T00:53:52.485Z,95691.84
2019-02-05T00:56:22.157Z,95696.61
2019-02-05T00:58:51.775Z,95695.58
2019-02-05T01:01:21.563Z,95690.16
2019-02-05T01:03:51.245Z,95677.84
2019-02-05T01:06:20.978Z,95679.42
2019-02-05T01:08:50.602Z,95682.23
2019-02-05T01:11:20.312Z,95680.94
2019-02-05T01:13:49.902Z,95689.03
2019-02-05T01:16:20.020Z,95693.47
2019-02-05T01:18:49.591Z,95682.34
2019-02-05T01:21:19.374Z,95675.94
2019-02-05T01:23:49.109Z,95674.66
2019-02-05T01:26:28.703Z,95675.31
2019-02-05T01:28:50.206Z,95674.59
2019-02-05T01:31:19.825Z,95676.84
2019-02-05T01:33:49.507Z,95658.63
2019-02-05T01:36:19.287Z,95668.64
2019-02-05T01:38:49.052Z,95664.09
2019-02-05T01:41:18.841Z,95671.07
2019-02-05T01:43:48.718Z,95661.67
2019-02-05T01:46:18.525Z,95662.59
2019-02-05T01:48:48.061Z,95663.05
2019-02-05T01:51:17.802Z,95659.60
2019-02-05T01:53:47.412Z,95656.70
2019-02-05T01:56:17.050Z,95659.93
2019-02-05T01:58:47.094Z,95669.02
2019-02-05T02:01:16.955Z,95666.77
2019-02-05T02:03:46.616Z,95664.27
2019-02-05T02:06:16.562Z,95656.28
2019-02-05T02:08:46.238Z,95659.81
2019-02-05T02:11:15.821Z,95657.31
2019-02-05T02:13:45.896Z,95658.63
2019-02-05T02:16:15.787Z,95656.53
2019-02-05T02:18:45.451Z,95659.16
2019-02-05T02:21:15.138Z,95657.23
2019-02-05T02:23:44.905Z,95658.19
2019-02-05T02:26:14.513Z,95654.70
2019-02-05T02:28:44.262Z,95654.51
2019-02-05T02:31:14.033Z,95656.65
2019-02-05T02:33:43.765Z,95655.87
2019-02-05T02:36:13.541Z,95659.31
2019-02-05T02:38:43.232Z,95657.70
2019-02-05T02:41:12.897Z,95659.80
2019-02-05T02:43:42.577Z,95648.25
2019-02-05T02:46:12.287Z,95655.87
2019-02-05T02:48:41.941Z,95652.06
2019-02-05T02:51:11.601Z,95659.73
2019-02-05T02:53:41.203Z,95659.06
2019-02-05T02:56:10.894Z,95651.63
2019-02-05T02:58:40.633Z,95653.92
2019-02-05T03:01:10.415Z,95669.42
2019-02-05T03:03:40.089Z,95669.41
2019-02-05T03:06:09.775Z,95674.20
2019-02-05T03:08:39.541Z,95666.02
2019-02-05T03:11:09.431Z,95668.50
2019-02-05T03:13:39.047Z,95663.30
2019-02-05T03:16:08.715Z,95673.98
2019-02-05T03:18:38.556Z,95673.89
2019-02-05T03:21:08.472Z,95669.92
2019-02-05T03:23:38.115Z,95659.05
2019-02-05T03:26:07.773Z,95669.50
2019-02-05T03:28:37.456Z,95661.28
2019-02-05T03:31:07.235Z,95655.45
2019-02-05T03:33:36.942Z,95657.42
2019-02-05T03:36:06.886Z,95648.63
2019-02-05T03:38:36.563Z,95660.51
2019-02-05T03:41:07.309Z,95661.36
2019-02-05T03:43:38.327Z,95662.11
2019-02-05T03:46:09.848Z,95660.08
2019-02-05T03:48:40.583Z,95659.31
2019-02-05T03:51:21.056Z,95646.72
2019-02-05T03:53:55.955Z,95653.75
2019-02-05T03:57:30.473Z,95647.96
2019-02-05T04:00:22.076Z,95646.41
2019-02-05T04:03:43.189Z,95648.28
2019-02-05T04:06:56.749Z,95651.66
2019-02-05T04:10:11.194Z,95656.34
2019-02-05T04:13:07.008Z,95650.99
2019-02-05T04:16:04.267Z,95651.22
2019-02-05T04:18:46.303Z,95649.50
2019-02-05T04:22:01.028Z,95654.72
2019-02-05T04:25:10.460Z,95648.31
2019-02-05T04:28:04.249Z,95647.03
2019-02-05T04:31:15.719Z,95641.23
2019-02-05T04:34:08.486Z,95642.69
2019-02-05T04:37:03.963Z,95637.64
2019-02-05T04:39:48.310Z,95626.63
2019-02-05T04:42:59.531Z,95627.32
2019-02-05T04:46:10.937Z,95633.80
2019-02-05T04:49:08.071Z,95634.61
2019-02-05T04:52:09.838Z,95637.38
2019-02-05T04:54:53.828Z,95639.95
2019-02-05T04:57:58.116Z,95643.45
2019-02-05T05:00:54.231Z,95647.91
2019-02-05T05:03:34.119Z,95647.23
2019-02-05T05:06:27.160Z,95650.41
2019-02-05T05:09:14.101Z,95651.92
2019-02-05T05:11:43.659Z,95644.14
2019-02-05T05:14:13.421Z,95657.59
2019-02-05T05:16:43.501Z,95660.28
2019-02-05T05:19:13.383Z,95653.95
2019-02-05T05:21:43.179Z,95655.45
2019-02-05T05:24:12.951Z,95647.69
2019-02-05T05:26:42.674Z,95659.72
2019-02-05T05:29:12.331Z,95659.02
2019-02-05T05:31:42.229Z,95659.80
2019-02-05T05:34:11.767Z,95657.14
2019-02-05T05:36:49.454Z,95657.89
2019-02-05T05:39:19.711Z,95663.66
2019-02-05T05:41:49.106Z,95672.30
2019-02-05T05:44:18.518Z,95672.62
2019-02-05T05:46:47.905Z,95670.47
2019-02-05T05:49:17.637Z,95665.14
2019-02-05T05:51:47.149Z,95673.37
2019-02-05T05:54:16.838Z,95671.27
2019-02-05T05:56:46.576Z,95677.14
2019-02-05T05:59:16.224Z,95677.80
2019-02-05T06:01:45.912Z,95674.14
2019-02-05T06:04:15.536Z,95671.33
2019-02-05T06:06:45.714Z,95680.13
2019-02-05T06:09:15.547Z,95687.92
2019-02-05T06:11:45.141Z,95685.34
2019-02-05T06:14:14.860Z,95695.70
2019-02-05T06:16:44.532Z,95688.84
2019-02-05T06:19:14.312Z,95694.10
2019-02-05T06:21:44.319Z,95688.63
2019-02-05T06:24:14.066Z,95698.88
2019-02-05T06:26:44.000Z,95683.61
2019-02-05T06:29:13.726Z,95698.84
2019-02-05T06:31:43.657Z,95699.09
2019-02-05T06:34:13.347Z,95700.16
2019-02-05T06:36:43.122Z,95704.33
2019-02-05T06:39:12.688Z,95703.05
2019-02-05T06:41:42.469Z,95698.36
2019-02-05T06:44:12.037Z,95703.64
2019-02-05T06:46:41.830Z,95701.03
2019-02-05T06:49:11.506Z,95700.41
2019-02-05T06:51:41.409Z,95704.20
2019-02-05T06:54:11.152Z,95700.59
2019-02-05T06:56:42.457Z,95703.37
2019-02-05T06:59:12.154Z,95704.45
2019-02-05T07:01:41.910Z,95702.59
2019-02-05T07:04:11.638Z,95701.39
2019-02-05T07:06:41.223Z,95709.25
2019-02-05T07:09:11.698Z,95704.03
2019-02-05T07:11:41.441Z,95702.39
2019-02-05T07:14:11.247Z,95705.27
2019-02-05T07:16:40.751Z,95705.27
2019-02-05T07:19:10.438Z,95706.76
2019-02-05T07:21:40.175Z,95712.17
2019-02-05T07:24:09.873Z,95715.30
2019-02-05T07:26:39.608Z,95709.33
2019-02-05T07:29:10.421Z,95711.11
2019-02-05T07:31:40.214Z,95708.39
2019-02-05T07:34:10.092Z,95705.39
2019-02-05T07:36:39.902Z,95704.54
2019-02-05T07:39:10.697Z,95709.06
2019-02-05T07:41:40.410Z,95706.61
2019-02-05T07:44:10.153Z,95705.34
2019-02-05T07:46:39.875Z,95718.13
2019-02-05T07:49:09.558Z,95717.63
2019-02-05T07:51:39.272Z,95719.95
2019-02-05T07:54:08.780Z,95721.05
2019-02-05T07:56:38.768Z,95726.84
2019-02-05T07:59:10.222Z,95721.53
2019-02-05T08:01:39.868Z,95716.59
2019-02-05T08:04:09.661Z,95717.17
2019-02-05T08:06:39.383Z,95715.89
2019-02-05T08:09:11.047Z,95721.86
2019-02-05T08:11:41.591Z,95714.83
2019-02-05T08:14:11.628Z,95717.91
2019-02-05T08:16:41.300Z,95709.34
2019-02-05T08:19:11.041Z,95715.77
2019-02-05T08:21:40.811Z,95709.11
2019-02-05T08:24:10.583Z,95710.48
2019-02-05T08:26:40.168Z,95714.02
2019-02-05T08:29:21.145Z,95707.62
2019-02-05T08:31:41.770Z,95712.04
2019-02-05T08:34:11.463Z,95722.27
2019-02-05T08:36:41.221Z,95722.31
2019-02-05T08:39:11.566Z,95724.46
2019-02-05T08:41:41.250Z,95716.63
2019-02-05T08:44:11.003Z,95711.72
2019-02-05T08:46:40.808Z,95718.03
2019-02-05T08:49:10.456Z,95712.58
2019-02-05T08:51:40.296Z,95708.39
2019-02-05T08:54:10.072Z,95712.11
2019-02-05T08:56:39.906Z,95713.38
2019-02-05T08:59:09.726Z,95704.06
2019-02-05T09:01:39.713Z,95704.06
2019-02-05T09:04:09.420Z,95709.02
2019-02-05T09:06:39.213Z,95709.02
2019-02-05T09:09:10.078Z,95720.28
2019-02-05T09:11:39.762Z,95721.19
2019-02-05T09:14:10.991Z,95721.19
2019-02-05T09:16:40.987Z,95715.98
2019-02-05T09:19:11.545Z,95715.98
2019-02-05T09:21:41.396Z,95708.39
2019-02-05T09:24:11.034Z,95708.39
2019-02-05T09:26:40.936Z,95708.77
2019-02-05T09:29:10.620Z,95703.84
2019-02-05T09:46:21.902Z,95685.12
2019-02-05T09:48:51.551Z,95687.66
2019-02-05T09:51:21.595Z,95682.13
2019-02-05T09:53:51.157Z,95676.23
2019-02-05T09:56:20.830Z,95681.02
2019-02-05T09:58:50.568Z,95681.05
2019-02-05T10:01:20.231Z,95679.25
2019-02-05T10:03:50.036Z,95669.48
2019-02-05T10:06:19.694Z,95667.88
2019-02-05T10:08:49.543Z,95657.10
2019-02-05T10:11:19.257Z,95656.56
2019-02-05T10:13:48.922Z,95656.00
2019-02-05T10:16:18.792Z,95653.27
2019-02-05T10:18:48.439Z,95635.22
2019-02-05T10:21:18.267Z,95636.53
2019-02-05T10:23:48.344Z,95635.71
2019-02-05T10:26:18.037Z,95632.52
2019-02-05T10:28:47.903Z,95620.67
2019-02-05T10:31:17.589Z,95625.24
2019-02-05T10:33:54.842Z,95613.55
2019-02-05T10:36:18.618Z,95612.20
2019-02-05T10:38:48.502Z,95608.66
2019-02-05T10:41:18.187Z,95612.40
2019-02-05T10:43:47.963Z,95605.30
2019-02-05T10:46:17.842Z,95600.09
2019-02-05T10:48:47.555Z,95608.14
2019-02-05T10:51:17.107Z,95599.28
2019-02-05T10:53:46.781Z,95598.27
2019-02-05T10:56:16.552Z,95590.51
2019-02-05T10:58:46.313Z,95587.20
2019-02-05T11:01:15.994Z,95586.28
2019-02-05T11:03:45.674Z,95576.77
2019-02-05T11:06:15.492Z,95579.57
2019-02-05T11:08:45.118Z,95575.25
2019-02-05T11:13:44.192Z,95571.94
2019-02-05T11:16:13.938Z,95563.97
2019-02-05T11:18:43.630Z,95558.41
2019-02-05T11:21:13.289Z,95562.34
2019-02-05T11:23:43.021Z,95557.69
2019-02-05T11:26:12.861Z,95554.65
2019-02-05T11:28:42.423Z,95551.22
2019-02-05T11:31:11.993Z,95549.80
2019-02-05T11:33:41.679Z,95548.41
2019-02-05T11:36:11.450Z,95542.77
2019-02-05T11:38:41.133Z,95550.48
2019-02-05T11:41:13.662Z,95543.37
2019-02-05T11:43:42.254Z,95533.19
2019-02-05T11:46:11.960Z,95528.09
2019-02-05T11:48:41.591Z,95529.77
2019-02-05T11:51:11.349Z,95524.14
2019-02-05T11:53:40.941Z,95519.64
2019-02-05T11:56:10.755Z,95523.47
2019-02-05T11:58:40.796Z,95522.10
2019-02-05T12:01:14.800Z,95512.81
2019-02-05T12:03:44.497Z,95504.98
2019-02-05T12:06:14.207Z,95507.65
2019-02-05T12:08:43.913Z,95504.89
2019-02-05T12:11:13.531Z,95513.91
2019-02-05T12:13:43.457Z,95503.84
2019-02-05T12:16:13.170Z,95499.20
2019-02-05T12:18:42.870Z,95492.89
2019-02-05T12:21:12.530Z,95486.83
2019-02-05T12:23:42.366Z,95484.64
2019-02-05T12:26:12.101Z,95490.52
2019-02-05T12:28:41.994Z,95478.33
2019-02-05T12:31:12.079Z,95476.13
2019-02-05T12:33:41.926Z,95475.59
2019-02-05T12:36:11.717Z,95469.77
2019-02-05T12:38:41.412Z,95469.27
2019-02-05T12:41:10.967Z,95467.46
2019-02-05T12:43:40.735Z,95460.73
2019-02-05T13:07:28.703Z,95416.47
2019-02-05T13:09:58.283Z,95442.47
2019-02-05T13:12:27.955Z,95444.58
2019-02-05T13:14:58.035Z,95449.84
2019-02-05T13:17:27.736Z,95444.72
2019-02-05T13:19:57.529Z,95443.02
2019-02-05T13:22:27.325Z,95436.55
2019-02-05T13:24:56.870Z,95437.78
2019-02-05T13:27:26.494Z,95436.27
2019-02-05T13:29:56.235Z,95436.52
2019-02-05T13:32:26.078Z,95434.84
2019-02-05T13:34:55.852Z,95432.86
2019-02-05T13:37:25.641Z,95432.39
2019-02-05T13:39:55.522Z,95431.84
2019-02-05T13:42:25.541Z,95433.25
2019-02-05T13:44:55.206Z,95443.11
2019-02-05T13:47:24.940Z,95438.76
2019-02-05T13:49:54.703Z,95437.09
2019-02-05T13:52:24.448Z,95431.84
2019-02-05T13:54:54.138Z,95434.09
2019-02-05T13:57:24.214Z,95440.21
2019-02-05T13:59:53.733Z,95439.77
2019-02-05T14:02:23.428Z,95436.47
2019-02-05T14:04:53.207Z,95432.19
2019-02-05T14:07:22.813Z,95431.77
2019-02-05T14:09:52.530Z,95435.83
2019-02-05T14:12:22.543Z,95446.92
2019-02-05T14:14:52.186Z,95442.19
2019-02-05T14:17:22.032Z,95448.25
2019-02-05T14:19:51.809Z,95455.50
2019-02-05T14:22:21.580Z,95451.66
2019-02-05T14:24:51.200Z,95452.52
2019-02-05T14:27:21.248Z,95456.26
2019-02-05T14:29:50.960Z,95459.70
2019-02-05T14:32:20.642Z,95457.05
2019-02-05T14:34:50.474Z,95455.45
2019-02-05T14:37:20.242Z,95458.77
2019-02-05T14:39:49.915Z,95461.33
2019-02-05T14:42:19.757Z,95460.18
2019-02-05T14:44:49.656Z,95463.04
2019-02-05T14:47:19.359Z,95458.66
2019-02-05T14:49:49.162Z,95463.80
2019-02-05T14:52:18.913Z,95466.17
2019-02-05T14:54:48.647Z,95456.25
2019-02-05T14:57:18.330Z,95462.16
2019-02-05T14:59:48.094Z,95467.46
2019-02-05T15:02:17.681Z,95468.30
2019-02-05T15:04:47.485Z,95465.02
2019-02-05T15:07:17.130Z,95474.08
2019-02-05T15:09:47.113Z,95481.27
2019-02-05T15:12:16.807Z,95481.67
2019-02-05T15:14:46.561Z,95478.93
2019-02-05T15:17:16.093Z,95481.68
2019-02-05T15:19:45.866Z,95487.36
2019-02-05T15:22:15.492Z,95490.78
2019-02-05T15:24:45.483Z,95494.68
2019-02-05T15:27:15.175Z,95494.77
2019-02-05T15:29:45.041Z,95498.48
2019-02-05T15:32:33.606Z,95506.16
2019-02-05T15:35:04.377Z,95503.03
2019-02-05T15:37:34.126Z,95506.23
2019-02-05T15:40:05.475Z,95503.70
2019-02-05T15:42:35.261Z,95510.98
2019-02-05T15:45:06.582Z,95510.56
2019-02-05T15:47:36.460Z,95511.13
2019-02-05T15:50:06.906Z,95518.31
2019-02-05T15:52:36.702Z,95516.17
2019-02-05T15:55:07.324Z,95522.64
2019-02-05T15:57:37.019Z,95522.86
2019-02-05T16:00:08.737Z,95522.16
2019-02-05T16:02:38.722Z,95516.55
2019-02-05T16:05:09.509Z,95512.93
2019-02-05T16:07:39.381Z,95532.64
2019-02-05T16:10:11.433Z,95531.94
2019-02-05T16:12:41.182Z,95542.47
2019-02-05T16:15:11.410Z,95525.49
2019-02-05T16:17:41.215Z,95533.47
2019-02-05T16:20:11.804Z,95537.87
2019-02-05T16:22:41.744Z,95537.87
2019-02-05T16:25:12.588Z,95532.63
2019-02-05T16:27:42.158Z,95544.58
2019-02-05T16:30:17.410Z,95543.46
2019-02-05T16:32:47.320Z,95539.63
2019-02-05T16:35:17.407Z,95537.89
2019-02-05T16:37:47.272Z,95537.89
2019-02-05T16:40:21.977Z,95547.20
2019-02-05T16:42:52.160Z,95540.30
2019-02-05T16:45:23.889Z,95540.30
2019-02-05T16:47:53.675Z,95552.50
2019-02-05T16:50:31.826Z,95549.31
2019-02-05T16:53:01.868Z,95549.31
2019-02-05T16:55:32.102Z,95549.49
2019-02-05T16:58:02.059Z,95551.90
2019-02-05T17:00:33.089Z,95556.37
2019-02-05T17:03:02.710Z,95552.55
2019-02-05T17:05:34.458Z,95554.15
2019-02-05T17:08:04.546Z,95550.09
2019-02-05T17:10:34.235Z,95552.42
2019-02-05T17:13:04.482Z,95549.60
2019-02-05T17:15:34.192Z,95544.66
2019-02-05T17:18:04.193Z,95553.27
2019-02-05T17:20:34.523Z,95553.27
2019-02-05T17:23:04.963Z,95548.41
2019-02-05T17:25:36.086Z,95543.05
2019-02-05T17:28:06.731Z,95543.05
2019-02-05T17:30:38.054Z,95548.27
2019-02-05T17:33:08.212Z,95548.27
2019-02-05T17:35:38.189Z,95541.54
2019-02-05T17:38:09.432Z,95529.77
2019-02-05T17:40:40.910Z,95530.56
2019-02-05T17:43:11.049Z,95528.96
2019-02-05T17:45:43.645Z,95528.96
2019-02-05T17:48:16.404Z,95526.28
2019-02-05T17:50:46.823Z,95516.63
2019-02-05T17:53:16.553Z,95522.89
2019-02-05T17:55:47.163Z,95512.15
2019-02-05T17:58:17.009Z,95516.65
2019-02-05T18:00:58.075Z,95520.37
2019-02-05T18:03:27.720Z,95522.97
2019-02-05T18:05:57.443Z,95521.67
2019-02-05T18:08:27.113Z,95525.19
2019-02-05T18:10:56.788Z,95523.58
2019-02-05T18:13:26.737Z,95518.96
2019-02-05T18:15:56.656Z,95521.82
2019-02-05T18:18:26.371Z,95526.94
2019-02-05T18:20:56.753Z,95524.44
2019-02-05T18:23:26.673Z,95521.36
2019-02-05T18:25:56.585Z,95514.00
2019-02-05T18:28:26.503Z,95526.30
2019-02-05T18:30:56.656Z,95523.30
2019-02-05T18:33:26.643Z,95523.30
2019-02-05T18:35:56.371Z,95528.14
2019-02-05T18:38:26.232Z,95533.40
2019-02-05T18:40:56.092Z,95531.66
2019-02-05T18:43:25.861Z,95532.55
2019-02-05T18:45:55.605Z,95536.15
2019-02-05T18:48:26.783Z,95528.14
2019-02-05T18:50:56.639Z,95531.80
2019-02-05T18:53:26.245Z,95537.44
2019-02-05T18:55:56.076Z,95539.11
2019-02-05T18:58:26.808Z,95538.95
2019-02-05T19:00:57.486Z,95537.13
2019-02-05T19:03:27.124Z,95532.66
2019-02-05T19:05:56.796Z,95538.09
2019-02-05T19:08:26.523Z,95532.66
2019-02-05T19:10:56.136Z,95532.60
2019-02-05T19:13:25.835Z,95531.41
2019-02-05T19:15:55.425Z,95525.05
2019-02-05T19:18:25.131Z,95520.80
2019-02-05T19:20:54.912Z,95526.01
2019-02-05T19:23:24.547Z,95530.20
2019-02-05T19:26:00.926Z,95528.38
2019-02-05T19:28:35.908Z,95523.55
2019-02-05T19:31:27.792Z,95507.10
2019-02-05T19:33:57.507Z,95508.70
2019-02-05T19:36:27.824Z,95508.58
2019-02-05T19:38:57.461Z,95508.58
2019-02-05T19:41:27.208Z,95512.75
2019-02-05T19:43:58.980Z,95508.68
2019-02-05T19:46:45.968Z,95499.38
2019-02-05T19:49:27.352Z,95496.33
2019-02-05T19:51:57.231Z,95500.34
2019-02-05T19:54:27.259Z,95501.23
2019-02-05T19:56:57.169Z,95500.02
2019-02-05T19:59:27.202Z,95497.44
2019-02-05T20:01:57.186Z,95496.14
2019-02-05T20:04:27.065Z,95488.27
2019-02-05T20:06:56.764Z,95487.59
2019-02-05T20:09:26.365Z,95495.90
2019-02-05T20:11:56.393Z,95493.50
2019-02-05T20:14:27.738Z,95492.45
2019-02-05T20:16:57.297Z,95489.62
2019-02-05T20:19:27.301Z,95488.02
2019-02-05T20:21:57.001Z,95487.16
2019-02-05T20:24:26.826Z,95499.63
2019-02-05T20:26:56.506Z,95505.30
2019-02-05T20:29:26.323Z,95502.48
2019-02-05T20:31:56.291Z,95496.56
2019-02-05T20:34:26.367Z,95493.52
2019-02-05T20:36:56.252Z,95491.86
2019-02-05T20:39:26.032Z,95476.65
2019-02-05T20:41:55.662Z,95476.19
2019-02-05T20:44:25.228Z,95476.59
2019-02-05T20:46:55.022Z,95473.11
2019-02-05T20:49:25.015Z,95470.22
2019-02-05T20:51:54.689Z,95471.20
2019-02-05T20:54:24.313Z,95477.33
2019-02-05T20:56:53.997Z,95476.74
2019-02-05T20:59:23.794Z,95475.41
2019-02-05T21:01:56.095Z,95475.36
2019-02-05T21:04:25.182Z,95469.09
2019-02-05T21:06:54.962Z,95469.90
2019-02-05T21:09:24.780Z,95467.19
2019-02-05T21:11:54.399Z,95469.83
2019-02-05T21:14:23.925Z,95469.83
2019-02-05T21:16:53.471Z,95463.20
2019-02-05T21:19:23.134Z,95465.25
2019-02-05T21:21:53.226Z,95465.03
2019-02-05T21:24:22.839Z,95453.14
2019-02-05T21:26:52.544Z,95453.09
2019-02-05T21:29:22.387Z,95440.72
2019-02-05T21:31:51.828Z,95446.09
2019-02-05T21:34:21.437Z,95452.61
2019-02-05T21:36:51.496Z,95452.61
2019-02-05T21:39:21.155Z,95456.48
2019-02-05T21:41:50.983Z,95464.67
2019-02-05T21:44:20.657Z,95467.56
2019-02-05T21:46:50.347Z,95465.84
2019-02-05T21:49:20.223Z,95460.67
2019-02-05T21:51:50.393Z,95460.67
2019-02-05T21:54:20.263Z,95462.94
2019-02-05T21:56:49.958Z,95461.96
2019-02-05T21:59:19.819Z,95456.29
2019-02-05T22:01:49.449Z,95455.05
2019-02-05T22:04:26.635Z,95453.02
2019-02-05T22:06:50.699Z,95446.30
2019-02-05T22:09:20.643Z,95456.09
2019-02-05T22:11:50.491Z,95456.31
2019-02-05T22:14:20.415Z,95457.08
2019-02-05T22:16:50.308Z,95462.59
2019-02-05T22:19:21.078Z,95462.59
2019-02-05T22:21:51.153Z,95451.99
2019-02-05T22:24:20.690Z,95454.07
2019-02-05T22:26:50.448Z,95455.88
2019-02-05T22:29:20.049Z,95447.89
2019-02-05T22:31:49.717Z,95430.75
2019-02-05T22:34:19.809Z,95430.75
2019-02-05T22:36:49.314Z,95431.07
2019-02-05T22:39:18.908Z,95427.58
2019-02-05T22:41:48.769Z,95418.56
2019-02-05T22:44:18.400Z,95437.13
2019-02-05T22:46:48.496Z,95422.87
2019-02-05T22:49:18.248Z,95429.77
2019-02-05T22:51:48.293Z,95418.75
2019-02-05T22:54:17.952Z,95425.63
2019-02-05T22:56:47.948Z,95428.89
2019-02-05T22:59:18.044Z,95430.25
2019-02-05T23:01:59.604Z,95423.75
2019-02-05T23:05:13.181Z,95422.73
2019-02-05T23:07:43.105Z,95420.06
2019-02-05T23:10:46.657Z,95411.36
2019-02-05T23:13:18.481Z,95409.41
2019-02-05T23:15:49.893Z,95388.42
2019-02-05T23:18:19.748Z,95382.95
2019-02-05T23:20:49.449Z,95375.64
2019-02-05T23:23:19.062Z,95370.13
2019-02-05T23:25:48.759Z,95371.56
2019-02-05T23:28:18.607Z,95367.77
2019-02-05T23:30:48.513Z,95369.36
